Flight Track Log - Related Links

Times and Time Zones

All times are in EDT time to prevent confusion due to time zone crossing. See the UAL4843 flight status page for this flight to view local times or setup timezone preferences in your user account.

Time Position Orientation Groundspeed Altitude Reporting Facility
EDT Latitude Longitude Course Direction KTS MPH feet Rate Location/Type
Sat 02:40:36 PM 39.2736 -76.8569 322° Northwest 194 223 5,900  Level Washington Center
Sat 02:41:36 PM 39.2856 -76.9136 285° West 182 209 7,600 1,750 Climbing Washington Center
Sat 02:42:36 PM 39.2975 -76.9647 287° West 169 194 9,400 1,450 Climbing Washington Center
Sat 02:43:00 PM 39.2000 -77.1050 270° West  Level FlightAware Approximate
Sat 02:43:36 PM 39.3094 -77.0158 287° West 157 181 10,500  Level Washington Center
Sat 02:44:00 PM 39.2214 -77.1547 322° Northwest  Level FlightAware Approximate
Sat 02:44:36 PM 39.3317 -77.0672 299° West 157 181 11,800  Level Washington Center
Sat 02:45:00 PM 39.2668 -77.2001 322° Northwest  Level FlightAware Approximate
Sat 02:45:36 PM 39.3581 -77.1161 305° West 162 186 13,100  Level Washington Center
Sat 02:46:36 PM 39.3844 -77.1678 303° West 167 192 14,400 1,300 Climbing Washington Center
Sat 02:47:36 PM 39.4089 -77.2167 303° West 167 192 15,700 800 Climbing Washington Center
Sat 02:48:36 PM 39.4375 -77.2656 307° West 167 192 16,000 400 Climbing Washington Center
Sat 02:49:36 PM 39.4719 -77.3256 307° West 182 209 16,500 600 Climbing Washington Center
Sat 02:50:36 PM 39.5025 -77.3800 306° West 194 223 17,200 700 Climbing Washington Center
Sat 02:51:36 PM 39.5328 -77.4347 306° West 194 223 17,900 700 Climbing Washington Center
Sat 02:52:36 PM 39.5633 -77.4892 306° West 194 223 18,600 750 Climbing Washington Center
Sat 02:53:36 PM 39.5936 -77.5411 307° West 194 223 19,400 542 Climbing Washington Center
Sat 02:55:11 PM 39.6408 -77.6231 307° West 190 219 20,000 232 Climbing Cleveland Center
Sat 02:56:11 PM 39.6714 -77.6783 306° West 185 213 20,000  Level Cleveland Center
Sat 02:57:11 PM 39.7042 -77.7364 306° West 191 220 20,000  Level Cleveland Center
Sat 02:58:11 PM 39.7392 -77.7969 307° West 196 226 20,000  Level Cleveland Center
Sat 02:59:11 PM 39.7739 -77.8578 307° West 202 232 20,000  Level Cleveland Center
Sat 03:00:11 PM 39.8067 -77.9211 304° West 207 238 20,000  Level Cleveland Center
Sat 03:01:11 PM 39.8436 -77.9819 308° West 212 244 20,000  Level Cleveland Center
Sat 03:02:11 PM 39.8783 -78.0456 305° West 212 244 20,000  Level Cleveland Center
Sat 03:03:11 PM 39.9131 -78.1039 308° West 212 244 20,000  Level Cleveland Center
Sat 03:04:11 PM 39.9478 -78.1675 305° West 217 250 20,000  Level Cleveland Center
Sat 03:05:11 PM 39.9822 -78.2286 306° West 217 250 20,000  Level Cleveland Center
Sat 03:06:11 PM 40.0150 -78.2897 305° West 217 250 20,000  Level Cleveland Center
Sat 03:07:11 PM 40.0494 -78.3508 306° West 217 250 20,000  Level Cleveland Center
Sat 03:08:11 PM 40.0839 -78.4094 308° West 217 250 20,000  Level Cleveland Center
Sat 03:09:11 PM 40.1164 -78.4736 304° West 217 250 20,000  Level Cleveland Center
Sat 03:10:11 PM 40.1508 -78.5350 306° West 217 250 20,000  Level Cleveland Center
Sat 03:11:11 PM 40.1833 -78.5939 306° West 217 250 20,000  Level Cleveland Center
Sat 03:12:11 PM 40.2178 -78.6581 305° West 217 250 20,000  Level Cleveland Center
Sat 03:13:11 PM 40.2564 -78.7250 307° West 211 243 20,000  Level Cleveland Center
Sat 03:14:11 PM 40.2886 -78.7867 304° West 211 243 20,000  Level Cleveland Center
Sat 03:15:11 PM 40.3208 -78.8483 304° West 216 249 20,000  Level Cleveland Center
Sat 03:16:11 PM 40.3550 -78.9075 307° West 216 249 20,000  Level Cleveland Center
Sat 03:17:11 PM 40.3892 -78.9667 307° West 216 249 20,000  Level Cleveland Center
Sat 03:18:11 PM 40.4233 -79.0258 307° West 216 249 20,000  Level Cleveland Center
Sat 03:19:11 PM 40.4556 -79.0822 307° West 216 249 20,000  Level Cleveland Center
Sat 03:20:11 PM 40.4875 -79.1417 305° West 211 243 20,000  Level Cleveland Center
Sat 03:21:11 PM 40.5194 -79.1983 307° West 206 237 20,000  Level Cleveland Center
Sat 03:22:11 PM 40.5514 -79.2550 307° West 206 237 20,000  Level Cleveland Center
Sat 03:23:11 PM 40.5853 -79.3092 309° West 206 237 20,000  Level Cleveland Center
Sat 03:24:11 PM 40.6172 -79.3686 305° West 206 237 20,000  Level Cleveland Center
Sat 03:25:11 PM 40.6492 -79.4256 306° West 200 230 20,000  Level Cleveland Center
Sat 03:26:11 PM 40.6831 -79.4825 308° West 200 230 20,000  Level Cleveland Center
Sat 03:27:11 PM 40.7150 -79.5394 307° West 200 230 20,000  Level Cleveland Center
Sat 03:28:11 PM 40.7467 -79.6019 304° West 200 230 20,000  Level Cleveland Center
Sat 03:29:11 PM 40.7806 -79.6619 307° West 200 230 20,000  Level Cleveland Center
Sat 03:30:11 PM 40.8144 -79.7217 307° West 200 230 20,000  Level Cleveland Center
Sat 03:31:11 PM 40.8461 -79.7817 305° West 200 230 20,000  Level Cleveland Center
Sat 03:32:11 PM 40.8800 -79.8417 307° West 200 230 20,000  Level Cleveland Center
Sat 03:33:11 PM 40.9136 -79.9017 307° West 200 230 20,000  Level Cleveland Center
Sat 03:34:11 PM 40.9494 -79.9644 307° West 200 230 20,000 -100 Level Cleveland Center
Sat 03:35:11 PM 40.9808 -80.0247 305° West 200 230 19,800 -700 Descending Cleveland Center
Sat 03:36:11 PM 41.0167 -80.0933 305° West 212 244 18,600 -1,200 Descending Cleveland Center
Sat 03:37:11 PM 41.0567 -80.1644 307° West 226 260 17,400 -1,200 Descending Cleveland Center
Sat 03:38:11 PM 41.0944 -80.2361 305° West 231 266 16,200 -1,200 Descending Cleveland Center
Sat 03:39:11 PM 41.1319 -80.3047 306° West 231 266 15,000 -1,100 Descending Cleveland Center
Sat 03:40:11 PM 41.1761 -80.3872 305° West 248 285 14,000 -850 Descending Cleveland Center
Sat 03:41:11 PM 41.2053 -80.4397 306° West 234 269 13,300 -850 Descending Cleveland Center
Sat 03:42:11 PM 41.2367 -80.4975 306° West 205 236 12,300 -1,000 Descending Cleveland Center
Sat 03:43:11 PM 41.2678 -80.5583 304° West 195 224 11,300 -650 Descending Cleveland Center
Sat 03:44:11 PM 41.2992 -80.6164 306° West 195 224 11,000 -150 Descending Cleveland Center
Sat 03:45:11 PM 41.3303 -80.6744 306° West 195 224 11,000 -300 Level Cleveland Center
Sat 03:46:11 PM 41.3533 -80.7325 298° West 185 213 10,400 -950 Descending Cleveland Center
Sat 03:47:11 PM 41.3761 -80.7961 296° West 185 213 9,100 -700 Descending Cleveland Center
Sat 03:48:11 PM 41.4011 -80.8600 298° West 179 206 9,000 -50 Descending Cleveland Center
Sat 03:49:11 PM 41.4236 -80.9208 296° West 179 206 9,000  Level Cleveland Center
Sat 03:49:42 PM 41.4361 -80.9486 301° West 189 217 9,000  Level Cleveland Center
Sat 03:50:11 PM 41.4464 -80.9847 291° West 179 206 9,000  Level Cleveland Center
Sat 03:51:13 PM 41.4711 -81.0486 297° West 190 219 9,000  Level Cleveland Center
Sat 03:52:11 PM 41.4919 -81.1069 296° West 179 206 9,000  Level Cleveland Center
Sat 03:53:15 PM 41.5103 -81.1736 290° West 196 226 9,000 -250 Level Cleveland Center
Sat 03:54:11 PM 41.5414 -81.2211 311° West 174 200 8,500 -893 Descending Cleveland Center
Sat 03:55:16 PM 41.5847 -81.2744 317° Northwest 197 227 7,200 -750 Descending Cleveland Center
Sat 03:56:11 PM 41.6200 -81.3219 315° West 201 231 7,000 -104 Descending Cleveland Center
Sat 03:57:11 PM 41.6444 -81.3833 298° West 196 226 7,000 -650 Level Cleveland Center
Sat 03:58:11 PM 41.6419 -81.4444 267° West 170 196 5,700 -1,000 Descending Cleveland Center
Sat 03:59:11 PM 41.6247 -81.5081 250° West 165 190 5,000 -326 Descending Cleveland Center
Sat 04:00:20 PM 41.5908 -81.5742 236° Southwest 191 220 5,000  Level Cleveland Center
Sat 04:01:21 PM 41.5592 -81.6211 228° Southwest 164 189 5,000 -246 Level Cleveland Center
Sat 04:02:22 PM 41.5317 -81.6650 230° Southwest 142 163 4,500 -639 Descending Cleveland Center
Sat 04:03:23 PM 41.5083 -81.7033 231° Southwest 149 171 3,700 -843 Descending Cleveland Center
Sat 04:04:23 PM 41.4767 -81.7528 229° Southwest 156 180 2,800 -843 Descending Cleveland Center
Sat 04:05:24 PM 41.4533 -81.7883 229° Southwest 136 157 2,000 -689 Descending Cleveland Center
Sat 04:06:25 PM 41.4300 -81.8239 229° Southwest 120 138 1,400 -590 Descending Cleveland Center

Login

Don't have an account? Register now (free) for customized features, flight alerts, and more!